sensor_id;sensor_type;location;lat;lon;timestamp;P1;durP1;ratioP1;P2;durP2;ratioP2
3307;SDS011;1666;48.898;9.182;2023-11-19T00:01:43;4.20;;;3.20;;
3307;SDS011;1666;48.898;9.182;2023-11-19T00:04:14;3.55;;;3.20;;
3307;SDS011;1666;48.898;9.182;2023-11-19T00:06:49;3.70;;;3.25;;
3307;SDS011;1666;48.898;9.182;2023-11-19T00:09:19;3.38;;;2.65;;
3307;SDS011;1666;48.898;9.182;2023-11-19T00:11:49;3.00;;;2.50;;
3307;SDS011;1666;48.898;9.182;2023-11-19T00:14:20;3.15;;;2.70;;
3307;SDS011;1666;48.898;9.182;2023-11-19T00:16:50;5.30;;;3.17;;
3307;SDS011;1666;48.898;9.182;2023-11-19T00:19:20;7.78;;;3.30;;
3307;SDS011;1666;48.898;9.182;2023-11-19T00:21:53;3.92;;;2.95;;
3307;SDS011;1666;48.898;9.182;2023-11-19T00:24:23;4.95;;;3.42;;
3307;SDS011;1666;48.898;9.182;2023-11-19T00:26:53;5.13;;;3.28;;
3307;SDS011;1666;48.898;9.182;2023-11-19T00:29:23;3.33;;;2.22;;
3307;SDS011;1666;48.898;9.182;2023-11-19T00:31:53;4.35;;;2.42;;
3307;SDS011;1666;48.898;9.182;2023-11-19T00:34:23;3.05;;;1.98;;
3307;SDS011;1666;48.898;9.182;2023-11-19T00:36:56;3.20;;;1.90;;
3307;SDS011;1666;48.898;9.182;2023-11-19T00:39:26;3.30;;;2.05;;
3307;SDS011;1666;48.898;9.182;2023-11-19T00:41:56;1.70;;;1.33;;
3307;SDS011;1666;48.898;9.182;2023-11-19T00:44:26;2.28;;;1.80;;
3307;SDS011;1666;48.898;9.182;2023-11-19T00:46:56;2.00;;;1.60;;
3307;SDS011;1666;48.898;9.182;2023-11-19T00:49:27;3.13;;;1.60;;
3307;SDS011;1666;48.898;9.182;2023-11-19T00:51:59;2.67;;;1.60;;
3307;SDS011;1666;48.898;9.182;2023-11-19T00:54:30;4.18;;;1.40;;
3307;SDS011;1666;48.898;9.182;2023-11-19T00:57:00;2.55;;;1.60;;
3307;SDS011;1666;48.898;9.182;2023-11-19T00:59:30;1.67;;;1.20;;
3307;SDS011;1666;48.898;9.182;2023-11-19T01:02:00;1.35;;;1.10;;
3307;SDS011;1666;48.898;9.182;2023-11-19T01:04:33;2.45;;;1.20;;
3307;SDS011;1666;48.898;9.182;2023-11-19T01:07:07;1.58;;;1.17;;
3307;SDS011;1666;48.898;9.182;2023-11-19T01:09:41;1.75;;;1.40;;
3307;SDS011;1666;48.898;9.182;2023-11-19T01:12:11;1.55;;;1.15;;
3307;SDS011;1666;48.898;9.182;2023-11-19T01:14:42;5.00;;;1.30;;
3307;SDS011;1666;48.898;9.182;2023-11-19T01:17:12;1.13;;;1.02;;
3307;SDS011;1666;48.898;9.182;2023-11-19T01:19:44;1.45;;;1.10;;
3307;SDS011;1666;48.898;9.182;2023-11-19T01:22:16;1.52;;;1.20;;
3307;SDS011;1666;48.898;9.182;2023-11-19T01:24:47;1.55;;;1.20;;
3307;SDS011;1666;48.898;9.182;2023-11-19T01:27:19;1.20;;;0.95;;
3307;SDS011;1666;48.898;9.182;2023-11-19T01:29:49;2.97;;;1.23;;
3307;SDS011;1666;48.898;9.182;2023-11-19T01:32:19;1.48;;;1.00;;
3307;SDS011;1666;48.898;9.182;2023-11-19T01:34:50;2.10;;;0.90;;
3307;SDS011;1666;48.898;9.182;2023-11-19T01:37:23;1.20;;;0.88;;
3307;SDS011;1666;48.898;9.182;2023-11-19T01:39:53;1.10;;;0.70;;
3307;SDS011;1666;48.898;9.182;2023-11-19T01:42:25;1.55;;;0.90;;
3307;SDS011;1666;48.898;9.182;2023-11-19T01:44:56;1.23;;;0.70;;
3307;SDS011;1666;48.898;9.182;2023-11-19T01:47:28;0.95;;;0.80;;
3307;SDS011;1666;48.898;9.182;2023-11-19T01:50:00;1.02;;;0.70;;
3307;SDS011;1666;48.898;9.182;2023-11-19T01:52:36;1.77;;;0.50;;
3307;SDS011;1666;48.898;9.182;2023-11-19T01:55:07;0.70;;;0.60;;
3307;SDS011;1666;48.898;9.182;2023-11-19T01:57:39;1.13;;;0.60;;
3307;SDS011;1666;48.898;9.182;2023-11-19T02:00:11;1.98;;;0.60;;
3307;SDS011;1666;48.898;9.182;2023-11-19T02:02:43;0.60;;;0.43;;
3307;SDS011;1666;48.898;9.182;2023-11-19T02:05:16;2.47;;;0.47;;
3307;SDS011;1666;48.898;9.182;2023-11-19T02:07:55;2.40;;;0.60;;
3307;SDS011;1666;48.898;9.182;2023-11-19T02:10:25;0.60;;;0.40;;
3307;SDS011;1666;48.898;9.182;2023-11-19T02:12:55;1.00;;;0.57;;
3307;SDS011;1666;48.898;9.182;2023-11-19T02:15:28;2.72;;;0.70;;
3307;SDS011;1666;48.898;9.182;2023-11-19T02:20:47;1.00;;;0.70;;
3307;SDS011;1666;48.898;9.182;2023-11-19T02:23:20;0.65;;;0.40;;
3307;SDS011;1666;48.898;9.182;2023-11-19T02:25:54;0.82;;;0.50;;
3307;SDS011;1666;48.898;9.182;2023-11-19T02:28:35;2.33;;;0.60;;
3307;SDS011;1666;48.898;9.182;2023-11-19T02:31:05;1.60;;;1.00;;
3307;SDS011;1666;48.898;9.182;2023-11-19T02:33:36;2.13;;;1.00;;
3307;SDS011;1666;48.898;9.182;2023-11-19T02:36:07;2.90;;;1.70;;
3307;SDS011;1666;48.898;9.182;2023-11-19T02:38:38;2.65;;;1.33;;
3307;SDS011;1666;48.898;9.182;2023-11-19T02:41:08;3.95;;;1.40;;
3307;SDS011;1666;48.898;9.182;2023-11-19T02:43:41;1.73;;;1.02;;
3307;SDS011;1666;48.898;9.182;2023-11-19T02:46:11;3.13;;;0.77;;
3307;SDS011;1666;48.898;9.182;2023-11-19T02:48:44;1.70;;;0.90;;
3307;SDS011;1666;48.898;9.182;2023-11-19T02:51:14;2.42;;;0.90;;
3307;SDS011;1666;48.898;9.182;2023-11-19T02:53:45;4.22;;;1.27;;
3307;SDS011;1666;48.898;9.182;2023-11-19T02:56:15;1.80;;;1.20;;
3307;SDS011;1666;48.898;9.182;2023-11-19T02:58:54;1.85;;;0.90;;
3307;SDS011;1666;48.898;9.182;2023-11-19T03:01:24;1.77;;;1.02;;
3307;SDS011;1666;48.898;9.182;2023-11-19T03:03:58;2.45;;;0.70;;
3307;SDS011;1666;48.898;9.182;2023-11-19T03:06:30;1.08;;;0.73;;
3307;SDS011;1666;48.898;9.182;2023-11-19T03:09:00;1.23;;;0.77;;
3307;SDS011;1666;48.898;9.182;2023-11-19T03:11:36;1.02;;;0.77;;
3307;SDS011;1666;48.898;9.182;2023-11-19T03:14:09;1.23;;;0.90;;
3307;SDS011;1666;48.898;9.182;2023-11-19T03:16:39;2.13;;;0.90;;
3307;SDS011;1666;48.898;9.182;2023-11-19T03:19:11;2.03;;;1.20;;
3307;SDS011;1666;48.898;9.182;2023-11-19T03:21:51;1.90;;;1.27;;
3307;SDS011;1666;48.898;9.182;2023-11-19T03:24:21;1.40;;;1.20;;
3307;SDS011;1666;48.898;9.182;2023-11-19T03:26:51;2.03;;;1.30;;
3307;SDS011;1666;48.898;9.182;2023-11-19T03:29:24;4.50;;;2.17;;
3307;SDS011;1666;48.898;9.182;2023-11-19T03:31:55;2.05;;;1.33;;
3307;SDS011;1666;48.898;9.182;2023-11-19T03:34:25;1.60;;;1.08;;
3307;SDS011;1666;48.898;9.182;2023-11-19T03:36:55;1.80;;;1.23;;
3307;SDS011;1666;48.898;9.182;2023-11-19T03:39:25;2.47;;;1.70;;
3307;SDS011;1666;48.898;9.182;2023-11-19T03:41:56;4.53;;;1.98;;
3307;SDS011;1666;48.898;9.182;2023-11-19T03:44:29;2.03;;;1.15;;
3307;SDS011;1666;48.898;9.182;2023-11-19T03:46:59;1.95;;;1.10;;
3307;SDS011;1666;48.898;9.182;2023-11-19T03:49:29;1.80;;;1.10;;
3307;SDS011;1666;48.898;9.182;2023-11-19T03:51:59;1.60;;;1.35;;
3307;SDS011;1666;48.898;9.182;2023-11-19T03:54:29;2.50;;;2.00;;
3307;SDS011;1666;48.898;9.182;2023-11-19T03:56:59;3.95;;;2.22;;
3307;SDS011;1666;48.898;9.182;2023-11-19T03:59:33;3.38;;;2.95;;
3307;SDS011;1666;48.898;9.182;2023-11-19T04:02:03;3.10;;;2.80;;
3307;SDS011;1666;48.898;9.182;2023-11-19T04:04:33;5.47;;;2.90;;
3307;SDS011;1666;48.898;9.182;2023-11-19T04:07:04;4.97;;;3.25;;
3307;SDS011;1666;48.898;9.182;2023-11-19T04:09:34;3.67;;;3.00;;
3307;SDS011;1666;48.898;9.182;2023-11-19T04:12:05;5.75;;;4.22;;
3307;SDS011;1666;48.898;9.182;2023-11-19T04:14:38;6.05;;;4.43;;
3307;SDS011;1666;48.898;9.182;2023-11-19T04:17:08;7.50;;;4.28;;
3307;SDS011;1666;48.898;9.182;2023-11-19T04:19:38;10.50;;;5.13;;
3307;SDS011;1666;48.898;9.182;2023-11-19T04:22:10;5.35;;;4.40;;
3307;SDS011;1666;48.898;9.182;2023-11-19T04:24:40;6.68;;;4.47;;
3307;SDS011;1666;48.898;9.182;2023-11-19T04:27:10;5.68;;;4.28;;
3307;SDS011;1666;48.898;9.182;2023-11-19T04:29:43;6.38;;;4.43;;
3307;SDS011;1666;48.898;9.182;2023-11-19T04:32:14;5.70;;;4.53;;
3307;SDS011;1666;48.898;9.182;2023-11-19T04:34:44;7.43;;;4.28;;
3307;SDS011;1666;48.898;9.182;2023-11-19T04:37:14;5.45;;;4.28;;
3307;SDS011;1666;48.898;9.182;2023-11-19T04:39:44;4.72;;;3.70;;
3307;SDS011;1666;48.898;9.182;2023-11-19T04:42:14;4.78;;;3.83;;
3307;SDS011;1666;48.898;9.182;2023-11-19T04:44:49;5.28;;;3.88;;
3307;SDS011;1666;48.898;9.182;2023-11-19T04:47:19;5.00;;;3.70;;
3307;SDS011;1666;48.898;9.182;2023-11-19T04:49:49;4.55;;;3.67;;
3307;SDS011;1666;48.898;9.182;2023-11-19T04:52:19;3.85;;;3.22;;
3307;SDS011;1666;48.898;9.182;2023-11-19T04:54:49;4.07;;;3.67;;
3307;SDS011;1666;48.898;9.182;2023-11-19T04:57:19;6.53;;;3.47;;
3307;SDS011;1666;48.898;9.182;2023-11-19T04:59:52;4.05;;;3.40;;
3307;SDS011;1666;48.898;9.182;2023-11-19T05:02:22;4.63;;;3.42;;
3307;SDS011;1666;48.898;9.182;2023-11-19T05:04:52;3.72;;;2.97;;
3307;SDS011;1666;48.898;9.182;2023-11-19T05:07:22;3.70;;;2.90;;
3307;SDS011;1666;48.898;9.182;2023-11-19T05:09:53;4.43;;;3.70;;
3307;SDS011;1666;48.898;9.182;2023-11-19T05:12:23;3.78;;;3.08;;
3307;SDS011;1666;48.898;9.182;2023-11-19T05:14:55;4.82;;;2.40;;
3307;SDS011;1666;48.898;9.182;2023-11-19T05:17:26;3.23;;;2.20;;
3307;SDS011;1666;48.898;9.182;2023-11-19T05:19:57;2.70;;;1.70;;
3307;SDS011;1666;48.898;9.182;2023-11-19T05:22:27;3.70;;;1.35;;
3307;SDS011;1666;48.898;9.182;2023-11-19T05:24:57;1.10;;;0.75;;
3307;SDS011;1666;48.898;9.182;2023-11-19T05:27:29;0.65;;;0.40;;
3307;SDS011;1666;48.898;9.182;2023-11-19T05:30:02;0.93;;;0.50;;
3307;SDS011;1666;48.898;9.182;2023-11-19T05:32:37;0.68;;;0.30;;
3307;SDS011;1666;48.898;9.182;2023-11-19T05:35:08;0.30;;;0.30;;
3307;SDS011;1666;48.898;9.182;2023-11-19T05:37:38;0.85;;;0.50;;
3307;SDS011;1666;48.898;9.182;2023-11-19T05:40:08;2.88;;;0.40;;
3307;SDS011;1666;48.898;9.182;2023-11-19T05:42:42;0.20;;;0.20;;
3307;SDS011;1666;48.898;9.182;2023-11-19T05:45:15;0.73;;;0.20;;
3307;SDS011;1666;48.898;9.182;2023-11-19T05:47:45;0.40;;;0.30;;
3307;SDS011;1666;48.898;9.182;2023-11-19T05:50:15;0.30;;;0.30;;
3307;SDS011;1666;48.898;9.182;2023-11-19T05:52:45;1.50;;;0.20;;
3307;SDS011;1666;48.898;9.182;2023-11-19T05:55:15;0.63;;;0.30;;
3307;SDS011;1666;48.898;9.182;2023-11-19T05:57:46;0.52;;;0.20;;
3307;SDS011;1666;48.898;9.182;2023-11-19T06:00:21;1.20;;;0.20;;
3307;SDS011;1666;48.898;9.182;2023-11-19T06:02:51;0.45;;;0.22;;
3307;SDS011;1666;48.898;9.182;2023-11-19T06:05:21;0.73;;;0.38;;
3307;SDS011;1666;48.898;9.182;2023-11-19T06:07:51;0.80;;;0.38;;
3307;SDS011;1666;48.898;9.182;2023-11-19T06:10:24;1.77;;;0.30;;
3307;SDS011;1666;48.898;9.182;2023-11-19T06:12:57;0.68;;;0.40;;
3307;SDS011;1666;48.898;9.182;2023-11-19T06:15:34;0.93;;;0.40;;
3307;SDS011;1666;48.898;9.182;2023-11-19T06:18:04;1.17;;;0.35;;
3307;SDS011;1666;48.898;9.182;2023-11-19T06:20:34;0.35;;;0.28;;
3307;SDS011;1666;48.898;9.182;2023-11-19T06:23:08;1.73;;;0.50;;
3307;SDS011;1666;48.898;9.182;2023-11-19T06:25:38;1.10;;;0.50;;
3307;SDS011;1666;48.898;9.182;2023-11-19T06:28:08;1.25;;;0.43;;
3307;SDS011;1666;48.898;9.182;2023-11-19T06:30:40;0.57;;;0.40;;
3307;SDS011;1666;48.898;9.182;2023-11-19T06:33:14;1.70;;;0.50;;
3307;SDS011;1666;48.898;9.182;2023-11-19T06:35:44;0.38;;;0.22;;
3307;SDS011;1666;48.898;9.182;2023-11-19T06:38:16;0.30;;;0.25;;
3307;SDS011;1666;48.898;9.182;2023-11-19T06:40:46;1.20;;;0.40;;
3307;SDS011;1666;48.898;9.182;2023-11-19T06:43:20;1.30;;;0.30;;
3307;SDS011;1666;48.898;9.182;2023-11-19T06:45:53;1.08;;;0.40;;
3307;SDS011;1666;48.898;9.182;2023-11-19T06:48:23;1.50;;;0.55;;
3307;SDS011;1666;48.898;9.182;2023-11-19T06:50:53;1.25;;;0.50;;
3307;SDS011;1666;48.898;9.182;2023-11-19T06:53:24;1.65;;;0.57;;
3307;SDS011;1666;48.898;9.182;2023-11-19T06:55:54;0.55;;;0.40;;
3307;SDS011;1666;48.898;9.182;2023-11-19T06:58:24;0.50;;;0.38;;
3307;SDS011;1666;48.898;9.182;2023-11-19T07:00:57;1.35;;;0.52;;
3307;SDS011;1666;48.898;9.182;2023-11-19T07:03:27;1.05;;;0.40;;
3307;SDS011;1666;48.898;9.182;2023-11-19T07:05:57;1.58;;;0.50;;
3307;SDS011;1666;48.898;9.182;2023-11-19T07:08:27;0.88;;;0.20;;
3307;SDS011;1666;48.898;9.182;2023-11-19T07:10:57;2.92;;;0.52;;
3307;SDS011;1666;48.898;9.182;2023-11-19T07:13:27;2.97;;;0.43;;
3307;SDS011;1666;48.898;9.182;2023-11-19T07:16:00;0.93;;;0.40;;
3307;SDS011;1666;48.898;9.182;2023-11-19T07:18:30;0.50;;;0.45;;
3307;SDS011;1666;48.898;9.182;2023-11-19T07:21:02;1.38;;;0.45;;
3307;SDS011;1666;48.898;9.182;2023-11-19T07:23:34;0.63;;;0.40;;
3307;SDS011;1666;48.898;9.182;2023-11-19T07:26:04;0.68;;;0.40;;
3307;SDS011;1666;48.898;9.182;2023-11-19T07:28:37;1.65;;;0.60;;
3307;SDS011;1666;48.898;9.182;2023-11-19T07:31:10;0.40;;;0.30;;
3307;SDS011;1666;48.898;9.182;2023-11-19T07:33:41;0.63;;;0.40;;
3307;SDS011;1666;48.898;9.182;2023-11-19T07:36:12;1.70;;;0.50;;
3307;SDS011;1666;48.898;9.182;2023-11-19T07:38:42;0.57;;;0.38;;
3307;SDS011;1666;48.898;9.182;2023-11-19T07:41:12;1.65;;;0.70;;
3307;SDS011;1666;48.898;9.182;2023-11-19T07:43:43;3.13;;;0.70;;
3307;SDS011;1666;48.898;9.182;2023-11-19T07:46:16;1.00;;;0.70;;
3307;SDS011;1666;48.898;9.182;2023-11-19T07:48:46;1.88;;;0.70;;
3307;SDS011;1666;48.898;9.182;2023-11-19T07:51:16;2.40;;;0.90;;
3307;SDS011;1666;48.898;9.182;2023-11-19T07:53:47;1.00;;;0.70;;
3307;SDS011;1666;48.898;9.182;2023-11-19T07:56:17;1.98;;;0.60;;
3307;SDS011;1666;48.898;9.182;2023-11-19T07:58:47;0.60;;;0.45;;
3307;SDS011;1666;48.898;9.182;2023-11-19T08:01:19;0.80;;;0.70;;
3307;SDS011;1666;48.898;9.182;2023-11-19T08:03:50;1.63;;;0.80;;
3307;SDS011;1666;48.898;9.182;2023-11-19T08:06:23;1.92;;;0.60;;
3307;SDS011;1666;48.898;9.182;2023-11-19T08:08:54;1.13;;;0.57;;
3307;SDS011;1666;48.898;9.182;2023-11-19T08:11:27;0.82;;;0.63;;
3307;SDS011;1666;48.898;9.182;2023-11-19T08:13:58;2.15;;;0.63;;
3307;SDS011;1666;48.898;9.182;2023-11-19T08:16:30;2.40;;;0.77;;
3307;SDS011;1666;48.898;9.182;2023-11-19T08:19:00;1.15;;;0.80;;
3307;SDS011;1666;48.898;9.182;2023-11-19T08:21:30;1.88;;;0.70;;
3307;SDS011;1666;48.898;9.182;2023-11-19T08:24:00;1.50;;;0.70;;
3307;SDS011;1666;48.898;9.182;2023-11-19T08:26:30;1.02;;;0.43;;
3307;SDS011;1666;48.898;9.182;2023-11-19T08:29:01;0.95;;;0.45;;
3307;SDS011;1666;48.898;9.182;2023-11-19T08:31:33;1.48;;;0.47;;
3307;SDS011;1666;48.898;9.182;2023-11-19T08:34:03;1.48;;;0.65;;
3307;SDS011;1666;48.898;9.182;2023-11-19T08:36:35;1.80;;;0.55;;
3307;SDS011;1666;48.898;9.182;2023-11-19T08:39:06;1.40;;;0.82;;
3307;SDS011;1666;48.898;9.182;2023-11-19T08:41:36;0.73;;;0.50;;
3307;SDS011;1666;48.898;9.182;2023-11-19T08:44:06;1.80;;;0.52;;
3307;SDS011;1666;48.898;9.182;2023-11-19T08:46:39;0.65;;;0.60;;
3307;SDS011;1666;48.898;9.182;2023-11-19T08:49:16;2.58;;;0.50;;
3307;SDS011;1666;48.898;9.182;2023-11-19T08:51:46;1.98;;;0.50;;
3307;SDS011;1666;48.898;9.182;2023-11-19T08:54:16;0.90;;;0.40;;
3307;SDS011;1666;48.898;9.182;2023-11-19T08:56:46;0.80;;;0.55;;
3307;SDS011;1666;48.898;9.182;2023-11-19T08:59:17;1.17;;;0.60;;
3307;SDS011;1666;48.898;9.182;2023-11-19T09:01:51;2.10;;;0.55;;
3307;SDS011;1666;48.898;9.182;2023-11-19T09:04:21;1.38;;;0.60;;
3307;SDS011;1666;48.898;9.182;2023-11-19T09:06:52;2.15;;;0.95;;
3307;SDS011;1666;48.898;9.182;2023-11-19T09:09:22;1.42;;;0.70;;
3307;SDS011;1666;48.898;9.182;2023-11-19T09:11:52;1.73;;;0.93;;
3307;SDS011;1666;48.898;9.182;2023-11-19T09:14:22;1.88;;;0.60;;
3307;SDS011;1666;48.898;9.182;2023-11-19T09:16:55;2.35;;;1.65;;
3307;SDS011;1666;48.898;9.182;2023-11-19T09:19:25;1.15;;;0.90;;
3307;SDS011;1666;48.898;9.182;2023-11-19T09:21:55;1.30;;;0.80;;
3307;SDS011;1666;48.898;9.182;2023-11-19T09:24:25;1.35;;;0.70;;
3307;SDS011;1666;48.898;9.182;2023-11-19T09:26:55;1.55;;;0.77;;
3307;SDS011;1666;48.898;9.182;2023-11-19T09:29:26;1.42;;;0.85;;
3307;SDS011;1666;48.898;9.182;2023-11-19T09:31:59;1.35;;;0.70;;
3307;SDS011;1666;48.898;9.182;2023-11-19T09:34:31;1.75;;;0.70;;
3307;SDS011;1666;48.898;9.182;2023-11-19T09:37:01;4.68;;;0.98;;
3307;SDS011;1666;48.898;9.182;2023-11-19T09:39:47;2.50;;;0.63;;
3307;SDS011;1666;48.898;9.182;2023-11-19T09:42:17;2.30;;;0.80;;
3307;SDS011;1666;48.898;9.182;2023-11-19T09:44:47;2.28;;;1.17;;
3307;SDS011;1666;48.898;9.182;2023-11-19T09:47:21;2.15;;;0.98;;
3307;SDS011;1666;48.898;9.182;2023-11-19T09:49:51;2.50;;;0.73;;
3307;SDS011;1666;48.898;9.182;2023-11-19T09:52:24;1.73;;;0.70;;
3307;SDS011;1666;48.898;9.182;2023-11-19T09:54:55;2.70;;;1.05;;
3307;SDS011;1666;48.898;9.182;2023-11-19T09:57:25;4.15;;;0.60;;
3307;SDS011;1666;48.898;9.182;2023-11-19T09:59:56;2.92;;;0.70;;
3307;SDS011;1666;48.898;9.182;2023-11-19T10:02:28;1.40;;;0.60;;
3307;SDS011;1666;48.898;9.182;2023-11-19T10:05:04;2.75;;;1.00;;
3307;SDS011;1666;48.898;9.182;2023-11-19T10:07:36;1.02;;;0.77;;
3307;SDS011;1666;48.898;9.182;2023-11-19T10:10:08;1.50;;;0.50;;
3307;SDS011;1666;48.898;9.182;2023-11-19T10:12:45;1.65;;;0.70;;
3307;SDS011;1666;48.898;9.182;2023-11-19T10:15:20;2.42;;;0.60;;
3307;SDS011;1666;48.898;9.182;2023-11-19T10:17:55;4.73;;;0.70;;
3307;SDS011;1666;48.898;9.182;2023-11-19T10:20:25;2.08;;;0.35;;
3307;SDS011;1666;48.898;9.182;2023-11-19T10:22:55;0.52;;;0.50;;
3307;SDS011;1666;48.898;9.182;2023-11-19T10:25:26;2.35;;;0.60;;
3307;SDS011;1666;48.898;9.182;2023-11-19T10:27:57;1.20;;;0.50;;
3307;SDS011;1666;48.898;9.182;2023-11-19T10:30:27;2.67;;;0.50;;
3307;SDS011;1666;48.898;9.182;2023-11-19T10:33:06;0.80;;;0.55;;
3307;SDS011;1666;48.898;9.182;2023-11-19T10:35:50;1.48;;;0.65;;
3307;SDS011;1666;48.898;9.182;2023-11-19T10:38:24;2.45;;;0.90;;
3307;SDS011;1666;48.898;9.182;2023-11-19T10:40:55;2.35;;;1.00;;
3307;SDS011;1666;48.898;9.182;2023-11-19T10:43:25;1.13;;;0.52;;
3307;SDS011;1666;48.898;9.182;2023-11-19T10:45:58;1.35;;;0.60;;
3307;SDS011;1666;48.898;9.182;2023-11-19T10:48:41;1.83;;;0.52;;
3307;SDS011;1666;48.898;9.182;2023-11-19T10:51:12;2.60;;;0.80;;
3307;SDS011;1666;48.898;9.182;2023-11-19T10:53:48;1.00;;;0.70;;
3307;SDS011;1666;48.898;9.182;2023-11-19T10:56:20;1.10;;;0.82;;
3307;SDS011;1666;48.898;9.182;2023-11-19T10:58:56;1.88;;;0.63;;
3307;SDS011;1666;48.898;9.182;2023-11-19T11:01:32;3.35;;;0.90;;
3307;SDS011;1666;48.898;9.182;2023-11-19T11:04:12;2.83;;;0.60;;
3307;SDS011;1666;48.898;9.182;2023-11-19T11:06:44;2.03;;;0.60;;
3307;SDS011;1666;48.898;9.182;2023-11-19T11:09:17;3.25;;;0.77;;
3307;SDS011;1666;48.898;9.182;2023-11-19T11:11:47;2.22;;;0.80;;
3307;SDS011;1666;48.898;9.182;2023-11-19T11:14:19;2.30;;;0.70;;
3307;SDS011;1666;48.898;9.182;2023-11-19T11:16:51;2.83;;;0.73;;
3307;SDS011;1666;48.898;9.182;2023-11-19T11:19:26;1.35;;;0.50;;
3307;SDS011;1666;48.898;9.182;2023-11-19T11:21:56;2.20;;;0.80;;
3307;SDS011;1666;48.898;9.182;2023-11-19T11:24:33;2.60;;;0.73;;
3307;SDS011;1666;48.898;9.182;2023-11-19T11:27:26;6.57;;;1.10;;
3307;SDS011;1666;48.898;9.182;2023-11-19T11:30:10;1.73;;;1.13;;
3307;SDS011;1666;48.898;9.182;2023-11-19T11:32:50;2.45;;;0.90;;
3307;SDS011;1666;48.898;9.182;2023-11-19T11:35:33;2.05;;;0.80;;
3307;SDS011;1666;48.898;9.182;2023-11-19T11:38:11;4.72;;;0.88;;
3307;SDS011;1666;48.898;9.182;2023-11-19T11:40:51;2.08;;;0.95;;
3307;SDS011;1666;48.898;9.182;2023-11-19T11:43:47;4.38;;;0.80;;
3307;SDS011;1666;48.898;9.182;2023-11-19T11:49:22;1.30;;;0.82;;
3307;SDS011;1666;48.898;9.182;2023-11-19T11:52:05;5.57;;;1.58;;
3307;SDS011;1666;48.898;9.182;2023-11-19T11:54:40;3.20;;;1.05;;
3307;SDS011;1666;48.898;9.182;2023-11-19T11:57:11;2.67;;;0.70;;
3307;SDS011;1666;48.898;9.182;2023-11-19T11:59:47;2.50;;;0.70;;
3307;SDS011;1666;48.898;9.182;2023-11-19T12:02:19;1.75;;;0.82;;
3307;SDS011;1666;48.898;9.182;2023-11-19T12:04:52;3.75;;;1.70;;
3307;SDS011;1666;48.898;9.182;2023-11-19T12:07:26;3.25;;;1.00;;
3307;SDS011;1666;48.898;9.182;2023-11-19T12:10:05;2.55;;;0.93;;
3307;SDS011;1666;48.898;9.182;2023-11-19T12:12:39;2.35;;;1.00;;
3307;SDS011;1666;48.898;9.182;2023-11-19T12:15:10;2.80;;;1.13;;
3307;SDS011;1666;48.898;9.182;2023-11-19T12:17:42;4.30;;;1.00;;
3307;SDS011;1666;48.898;9.182;2023-11-19T12:20:17;2.72;;;1.13;;
3307;SDS011;1666;48.898;9.182;2023-11-19T12:25:24;2.05;;;1.00;;
3307;SDS011;1666;48.898;9.182;2023-11-19T12:27:54;3.90;;;1.00;;
3307;SDS011;1666;48.898;9.182;2023-11-19T12:30:25;3.20;;;2.10;;
3307;SDS011;1666;48.898;9.182;2023-11-19T12:32:56;3.22;;;0.80;;
3307;SDS011;1666;48.898;9.182;2023-11-19T12:35:26;3.75;;;0.82;;
3307;SDS011;1666;48.898;9.182;2023-11-19T12:37:59;1.63;;;0.98;;
3307;SDS011;1666;48.898;9.182;2023-11-19T12:40:29;2.13;;;0.90;;
3307;SDS011;1666;48.898;9.182;2023-11-19T12:42:59;1.13;;;0.52;;
3307;SDS011;1666;48.898;9.182;2023-11-19T12:45:34;2.42;;;0.80;;
3307;SDS011;1666;48.898;9.182;2023-11-19T12:48:06;2.75;;;1.08;;
3307;SDS011;1666;48.898;9.182;2023-11-19T12:50:50;1.67;;;0.80;;
3307;SDS011;1666;48.898;9.182;2023-11-19T12:53:24;1.30;;;0.60;;
3307;SDS011;1666;48.898;9.182;2023-11-19T12:55:55;1.90;;;0.90;;
3307;SDS011;1666;48.898;9.182;2023-11-19T12:58:37;1.50;;;0.65;;
3307;SDS011;1666;48.898;9.182;2023-11-19T13:01:09;2.88;;;0.82;;
3307;SDS011;1666;48.898;9.182;2023-11-19T13:03:39;2.65;;;0.88;;
3307;SDS011;1666;48.898;9.182;2023-11-19T13:06:11;3.70;;;0.95;;
3307;SDS011;1666;48.898;9.182;2023-11-19T13:08:45;1.23;;;0.73;;
3307;SDS011;1666;48.898;9.182;2023-11-19T13:11:30;3.13;;;1.02;;
3307;SDS011;1666;48.898;9.182;2023-11-19T13:14:01;4.35;;;1.10;;
3307;SDS011;1666;48.898;9.182;2023-11-19T13:16:36;1.73;;;0.82;;
3307;SDS011;1666;48.898;9.182;2023-11-19T13:19:07;2.25;;;1.10;;
3307;SDS011;1666;48.898;9.182;2023-11-19T13:21:38;2.45;;;1.00;;
3307;SDS011;1666;48.898;9.182;2023-11-19T13:24:11;2.03;;;0.82;;
3307;SDS011;1666;48.898;9.182;2023-11-19T13:26:41;1.33;;;0.60;;
3307;SDS011;1666;48.898;9.182;2023-11-19T13:29:11;2.03;;;0.73;;
3307;SDS011;1666;48.898;9.182;2023-11-19T13:31:41;4.75;;;0.90;;
3307;SDS011;1666;48.898;9.182;2023-11-19T13:34:11;1.88;;;0.57;;
3307;SDS011;1666;48.898;9.182;2023-11-19T13:36:41;2.25;;;1.05;;
3307;SDS011;1666;48.898;9.182;2023-11-19T13:39:14;5.47;;;0.82;;
3307;SDS011;1666;48.898;9.182;2023-11-19T13:41:49;1.63;;;0.60;;
3307;SDS011;1666;48.898;9.182;2023-11-19T13:44:39;2.70;;;0.70;;
3307;SDS011;1666;48.898;9.182;2023-11-19T13:47:09;1.17;;;0.80;;
3307;SDS011;1666;48.898;9.182;2023-11-19T13:49:40;2.08;;;0.88;;
3307;SDS011;1666;48.898;9.182;2023-11-19T13:52:10;1.25;;;0.90;;
3307;SDS011;1666;48.898;9.182;2023-11-19T13:54:43;1.00;;;0.60;;
3307;SDS011;1666;48.898;9.182;2023-11-19T13:57:13;1.65;;;0.70;;
3307;SDS011;1666;48.898;9.182;2023-11-19T13:59:43;1.65;;;0.93;;
3307;SDS011;1666;48.898;9.182;2023-11-19T14:02:13;2.80;;;0.80;;
3307;SDS011;1666;48.898;9.182;2023-11-19T14:04:43;2.20;;;0.60;;
3307;SDS011;1666;48.898;9.182;2023-11-19T14:07:13;1.27;;;0.60;;
3307;SDS011;1666;48.898;9.182;2023-11-19T14:09:46;1.65;;;0.68;;
3307;SDS011;1666;48.898;9.182;2023-11-19T14:12:17;1.17;;;0.52;;
3307;SDS011;1666;48.898;9.182;2023-11-19T14:14:51;0.90;;;0.50;;
3307;SDS011;1666;48.898;9.182;2023-11-19T14:17:21;1.48;;;0.85;;
3307;SDS011;1666;48.898;9.182;2023-11-19T14:19:52;1.33;;;0.50;;
3307;SDS011;1666;48.898;9.182;2023-11-19T14:22:22;1.17;;;0.70;;
3307;SDS011;1666;48.898;9.182;2023-11-19T14:24:54;3.25;;;1.20;;
3307;SDS011;1666;48.898;9.182;2023-11-19T14:27:25;1.90;;;0.60;;
3307;SDS011;1666;48.898;9.182;2023-11-19T14:29:55;2.85;;;0.85;;
3307;SDS011;1666;48.898;9.182;2023-11-19T14:32:25;1.23;;;0.73;;
3307;SDS011;1666;48.898;9.182;2023-11-19T14:34:55;1.15;;;0.50;;
3307;SDS011;1666;48.898;9.182;2023-11-19T14:37:25;3.30;;;0.68;;
3307;SDS011;1666;48.898;9.182;2023-11-19T14:39:58;1.17;;;0.50;;
3307;SDS011;1666;48.898;9.182;2023-11-19T14:42:29;0.88;;;0.63;;
3307;SDS011;1666;48.898;9.182;2023-11-19T14:44:59;1.63;;;0.65;;
3307;SDS011;1666;48.898;9.182;2023-11-19T14:47:29;1.27;;;0.75;;
3307;SDS011;1666;48.898;9.182;2023-11-19T14:49:59;3.70;;;0.75;;
3307;SDS011;1666;48.898;9.182;2023-11-19T14:52:29;1.55;;;0.80;;
3307;SDS011;1666;48.898;9.182;2023-11-19T14:55:02;3.38;;;0.90;;
3307;SDS011;1666;48.898;9.182;2023-11-19T14:57:32;1.58;;;0.70;;
3307;SDS011;1666;48.898;9.182;2023-11-19T15:00:05;2.05;;;1.10;;
3307;SDS011;1666;48.898;9.182;2023-11-19T15:02:40;3.85;;;1.30;;
3307;SDS011;1666;48.898;9.182;2023-11-19T15:05:10;2.90;;;1.25;;
3307;SDS011;1666;48.898;9.182;2023-11-19T15:07:40;2.28;;;0.95;;
3307;SDS011;1666;48.898;9.182;2023-11-19T15:10:13;1.90;;;0.90;;
3307;SDS011;1666;48.898;9.182;2023-11-19T15:12:43;1.90;;;0.90;;
3307;SDS011;1666;48.898;9.182;2023-11-19T15:15:13;1.38;;;1.08;;
3307;SDS011;1666;48.898;9.182;2023-11-19T15:18:02;1.92;;;1.00;;
3307;SDS011;1666;48.898;9.182;2023-11-19T15:20:32;1.77;;;0.95;;
3307;SDS011;1666;48.898;9.182;2023-11-19T15:23:02;2.17;;;1.00;;
3307;SDS011;1666;48.898;9.182;2023-11-19T15:25:37;2.67;;;0.70;;
3307;SDS011;1666;48.898;9.182;2023-11-19T15:28:07;1.30;;;0.70;;
3307;SDS011;1666;48.898;9.182;2023-11-19T15:30:38;3.90;;;1.00;;
3307;SDS011;1666;48.898;9.182;2023-11-19T15:33:08;2.85;;;0.80;;
3307;SDS011;1666;48.898;9.182;2023-11-19T15:35:39;2.33;;;0.77;;
3307;SDS011;1666;48.898;9.182;2023-11-19T15:38:09;2.22;;;0.90;;
3307;SDS011;1666;48.898;9.182;2023-11-19T15:40:41;3.17;;;0.80;;
3307;SDS011;1666;48.898;9.182;2023-11-19T15:43:12;2.03;;;0.80;;
3307;SDS011;1666;48.898;9.182;2023-11-19T15:45:42;1.35;;;0.80;;
3307;SDS011;1666;48.898;9.182;2023-11-19T15:48:12;2.33;;;0.90;;
3307;SDS011;1666;48.898;9.182;2023-11-19T15:50:42;2.72;;;0.70;;
3307;SDS011;1666;48.898;9.182;2023-11-19T15:53:13;1.83;;;0.80;;